Observation Tools

American linden Photo courtesy of D.E. Herman, USDA-NRCS PLANTS Database.

American linden (Tilia americana)


Also Known As: Basswood, Lime tree
Plant Family: Linden (Tiliaceae)
Project BudBurst Plant Group: Deciduous Trees and Shrubs

Identification Hints: Lindens, also known as basswoods, are highly prized ornamental trees with soft heart-shaped leaves with fine teeth on the leaf margins, uneven bases and fragrant yellow flowers. The American linden has large hairless leaves and hairless flower stalks as contrasted with the southern basswoods (Carolina basswood (T. caroliniana), white basswood (T. heterophylla)). The Florida basswood (T. floridana) has silvery undersides to the leaves. Three European species are common ornamentals: small leaved linden (T. cordata) which has small round leaves 2.5 to 6 cm (1 to 2.5 in) and whitish undersides (but small tufts of brown hairs), and the large-leaved lime (T. platyphyllos) with leaves 7.5 to 10 cm (3 to 4 in) long (but still smaller and more rounded than American linden) with fine short hairs on the under surface of the leaves.

Did you Know? Native Americans and settlers used the fibrous inner bark ("bast") as a source of fiber for rope, mats, fish nets, and baskets. Before the widespread availability of synthetics, American Linden was once the material choice for prosthetic limbs. It is still valued for its soft, light, easily worked wood, especially for turned items and hand carving.


Live Map for American linden

Other years available for viewing:

Below you can view all observations that have been reported in for American linden (If the map below is empty then there have not been any observations reported.)

Use the navigation buttons on the left to zoom in/out and pan around. Click on each place marker to get detail information about that observation.

Leaf/Needles/Stalk = Leaf/Needles/Stalk Flower = Flower Pollen = Pollen Fruiting = Fruiting Color = Color

--Back to Top--

close help window button

The table below displays all the data that has been submitted to Project BudBurst. By default, the data is sorted by the date on which the phenophase occurred. Clicking the up and down arrows next to each column name allows you to sort on any value. If there have been more than 10 observations submitted, you can choose how many to display at a time using the "Show __ entries" control. You can also page through the data using the previous and next buttons at the bottom right of the table.

The Search box allows you to search all of the data. Searching by date, species, phenophase, etc. is easy—just start typing and the table will immediately change to contain only observations that contain your search phrase. Do you want to see only 2012 observations? Just type "2012" in the search box. Only want to see maples? Enter "Acer." You can combine searches, too! Searching for "acer 2012" will narrow your results to only the maples that were observed in 2012 (assuming that any observations exist, of course).

Once you have your results in the order desired, you can use any of the buttons above the search box to copy the results to the clipboard; save them as a text, or spreadsheet; or even print them from your browser!

Observational data for American linden:

help button
Date Contributor Common Name Species Phenophase Latitude Longitude Obs#
Fri Apr 25 00:00:00 GMT 2008 wheelerschool American linden Tilia americana First Leaf 41.829500000000000 -71.398400000000000 2278
Tue Apr 22 00:00:00 GMT 2008 mspoliner American linden Tilia americana First Leaf 40.766200000000000 -73.659300000000000 2324
Thu Apr 24 00:00:00 GMT 2008 hprice American linden Tilia americana First Leaf 41.684200000000000 -86.247200000000000 2406
Sat Apr 19 00:00:00 GMT 2008 hprice American linden Tilia americana First Flower 41.684200000000000 -86.247200000000000 2407
Tue Apr 22 00:00:00 GMT 2008 hprice American linden Tilia americana Full Flower 41.684200000000000 -86.247200000000000 2408
Sat May 03 00:00:00 GMT 2008 MENDOTA American linden Tilia americana First Leaf 41.564200000000000 -89.124400000000000 2756
Mon Apr 28 00:00:00 GMT 2008 leonard American linden Tilia americana First Leaf 39.984500000000000 -81.150000000000000 3119
Mon May 05 00:00:00 GMT 2008 leonard American linden Tilia americana All Leaves Unfolded 39.984500000000000 -81.150000000000000 3120
Sat May 10 00:00:00 GMT 2008 chrisj0727 American linden Tilia americana First Leaf 44.789600000000000 -93.111700000000000 3158
Tue Apr 29 00:00:00 GMT 2008 beedlow American linden Tilia americana First Leaf 44.567000000000000 -123.267000000000000 3477
Fri May 16 00:00:00 GMT 2008 chrisj0727 American linden Tilia americana All Leaves Unfolded 44.789600000000000 -93.111700000000000 3616
Sat May 03 00:00:00 GMT 2008 sfern American linden Tilia americana First Leaf 42.000500000000000 -87.674200000000000 3728
Thu May 15 00:00:00 GMT 2008 hankdort American linden Tilia americana First Leaf 47.341800000000000 -114.008000000000000 3984
Sun May 18 00:00:00 GMT 2008 hankdort American linden Tilia americana All Leaves Unfolded 47.341800000000000 -114.008000000000000 3985
Fri Apr 25 00:00:00 GMT 2008 vanndawn American linden Tilia americana First Leaf 38.996400000000000 -92.613100000000000 4360
Wed Jul 02 00:00:00 GMT 2008 chrisj0727 American linden Tilia americana First Flower 44.789600000000000 -93.111700000000000 4409
Sun Jul 06 00:00:00 GMT 2008 chrisj0727 American linden Tilia americana Full Flower 44.789600000000000 -93.111700000000000 4410
Tue Jul 15 00:00:00 GMT 2008 hankdort American linden Tilia americana First Flower 47.341800000000000 -114.008000000000000 4546
Fri Jul 18 00:00:00 GMT 2008 hankdort American linden Tilia americana Full Flower 47.341800000000000 -114.008000000000000 4547
Sat Feb 17 00:00:00 GMT 2007 anonymous American linden Tilia americana First Leaf 41.728300000000000 -88.098700000000000 5163
Wed Jun 20 00:00:00 GMT 2007 anonymous American linden Tilia americana All Leaves Unfolded 41.728300000000000 -88.098700000000000 5164
Fri Aug 07 00:00:00 GMT 2009 anonymous American linden Tilia americana 50% Color 41.728300000000000 -88.098700000000000 5165
Mon Oct 12 00:00:00 GMT 2009 anonymous American linden Tilia americana 50% Leaf Fall 41.728300000000000 -88.098700000000000 5166
Mon Apr 20 00:00:00 GMT 2009 zac American linden Tilia americana First Leaf 39.674800000000000 -104.965000000000000 6282
Sat May 02 00:00:00 GMT 2009 compobs American linden Tilia americana First Leaf 45.379400000000000 -93.076700000000000 6929
Mon May 04 00:00:00 GMT 2009 d_hrding American linden Tilia americana First Leaf 44.142700000000000 -71.182800000000000 6951
Fri May 08 00:00:00 GMT 2009 d_hrding American linden Tilia americana All Leaves Unfolded 44.142700000000000 -71.182800000000000 7241
Mon Apr 27 00:00:00 GMT 2009 anonymous American linden Tilia americana First Leaf 45.153700000000000 -93.353000000000000 7263
Tue May 05 00:00:00 GMT 2009 anonymous American linden Tilia americana All Leaves Unfolded 45.153700000000000 -93.353000000000000 7264
Mon May 04 00:00:00 GMT 2009 alexalabarge American linden Tilia americana First Leaf 39.000000000000000 -104.000000000000000 7316
Fri May 08 00:00:00 GMT 2009 alexalabarge American linden Tilia americana All Leaves Unfolded 39.000000000000000 -104.000000000000000 7317
Wed Apr 29 00:00:00 GMT 2009 saganwelch American linden Tilia americana First Leaf 39.677000000000000 -104.962000000000000 7399
Fri May 01 00:00:00 GMT 2009 saganwelch American linden Tilia americana All Leaves Unfolded 39.677000000000000 -104.962000000000000 7400
Sun May 10 00:00:00 GMT 2009 palaback American linden Tilia americana First Leaf 46.866700000000000 -113.983000000000000 7428
Sun Apr 26 00:00:00 GMT 2009 clehn American linden Tilia americana First Leaf 41.512000000000000 -81.610400000000000 7452
Wed Apr 29 00:00:00 GMT 2009 clehn American linden Tilia americana All Leaves Unfolded 41.512000000000000 -81.610400000000000 7453
Wed Apr 29 00:00:00 GMT 2009 872209154 American linden Tilia americana First Leaf 39.000000000000000 -104.000000000000000 7533
Wed Apr 29 00:00:00 GMT 2009 872209154 American linden Tilia americana All Leaves Unfolded 39.000000000000000 -104.000000000000000 7534
Wed May 06 00:00:00 GMT 2009 ryan.hustana@du.edu American linden Tilia americana First Leaf 39.000000000000000 -104.000000000000000 7607
Wed May 13 00:00:00 GMT 2009 ryan.hustana@du.edu American linden Tilia americana All Leaves Unfolded 39.000000000000000 -104.000000000000000 7608
Mon May 11 00:00:00 GMT 2009 ryan.hustana@du.edu American linden Tilia americana 50% Color 39.000000000000000 -104.000000000000000 7609
Fri May 08 00:00:00 GMT 2009 jennalindsayb American linden Tilia americana First Leaf 39.674500000000000 -104.962000000000000 7621
Fri May 15 00:00:00 GMT 2009 jennalindsayb American linden Tilia americana All Leaves Unfolded 39.674500000000000 -104.962000000000000 7622
Fri May 01 00:00:00 GMT 2009 ssulli40 American linden Tilia americana First Leaf 39.674800000000000 -104.964000000000000 7682
Wed May 06 00:00:00 GMT 2009 ssulli40 American linden Tilia americana All Leaves Unfolded 39.674800000000000 -104.964000000000000 7683
Fri May 08 00:00:00 GMT 2009 ssulli40 American linden Tilia americana 50% Color 39.674800000000000 -104.964000000000000 7684
Mon May 04 00:00:00 GMT 2009 historyswimmer66 American linden Tilia americana First Leaf 39.000000000000000 -104.000000000000000 7671
Mon May 18 00:00:00 GMT 2009 historyswimmer66 American linden Tilia americana All Leaves Unfolded 39.000000000000000 -104.000000000000000 7672
Thu Apr 30 00:00:00 GMT 2009 hotdesizzle American linden Tilia americana First Leaf 39.000000000000000 -104.000000000000000 7675
Tue May 05 00:00:00 GMT 2009 hotdesizzle American linden Tilia americana All Leaves Unfolded 39.000000000000000 -104.000000000000000 7676
Mon Apr 27 00:00:00 GMT 2009 anonymous American linden Tilia americana First Leaf 39.677000000000000 -104.962000000000000 7697
Fri May 01 00:00:00 GMT 2009 anonymous American linden Tilia americana All Leaves Unfolded 39.677000000000000 -104.962000000000000 7698
Mon May 11 00:00:00 GMT 2009 anonymous American linden Tilia americana 50% Leaf Fall 39.677000000000000 -104.962000000000000 7699
Fri May 08 00:00:00 GMT 2009 Corey American linden Tilia americana First Leaf 39.000000000000000 -104.000000000000000 7730
Mon May 11 00:00:00 GMT 2009 Corey American linden Tilia americana All Leaves Unfolded 39.000000000000000 -104.000000000000000 7731
Mon May 11 00:00:00 GMT 2009 caylaj American linden Tilia americana First Leaf 39.000000000000000 -104.000000000000000 7744
Wed May 13 00:00:00 GMT 2009 caylaj American linden Tilia americana All Leaves Unfolded 39.000000000000000 -104.000000000000000 7745
Tue May 05 00:00:00 GMT 2009 Brian.Baxter American linden Tilia americana First Leaf 39.000000000000000 -104.000000000000000 7787
Sat May 09 00:00:00 GMT 2009 Brian.Baxter American linden Tilia americana All Leaves Unfolded 39.000000000000000 -104.000000000000000 7788
Wed May 13 00:00:00 GMT 2009 Brian.Baxter American linden Tilia americana First Flower 39.000000000000000 -104.000000000000000 7789
Mon May 18 00:00:00 GMT 2009 Brian.Baxter American linden Tilia americana Full Flower 39.000000000000000 -104.000000000000000 7790
Thu Jan 29 00:00:00 GMT 2009 david.phillips@du.edu American linden Tilia americana First Leaf 39.000000000000000 -104.000000000000000 7807
Fri May 01 00:00:00 GMT 2009 david.phillips@du.edu American linden Tilia americana All Leaves Unfolded 39.000000000000000 -104.000000000000000 7808
Fri May 08 00:00:00 GMT 2009 csoucy625 American linden Tilia americana First Leaf 39.674200000000000 -104.962000000000000 7823
Wed May 13 00:00:00 GMT 2009 csoucy625 American linden Tilia americana All Leaves Unfolded 39.674200000000000 -104.962000000000000 7824
Wed Apr 22 00:00:00 GMT 2009 oompas American linden Tilia americana First Leaf 39.000000000000000 -104.000000000000000 7861
Mon Apr 27 00:00:00 GMT 2009 oompas American linden Tilia americana All Leaves Unfolded 39.000000000000000 -104.000000000000000 7862
Fri May 01 00:00:00 GMT 2009 Brian.Baxter American linden Tilia americana 50% Color 39.000000000000000 -104.000000000000000 7888
Fri May 15 00:00:00 GMT 2009 Brian.Baxter American linden Tilia americana First Ripe Fruit 39.000000000000000 -104.000000000000000 7890
Sun Jan 25 00:00:00 GMT 2009 dansan American linden Tilia americana First Leaf 39.674900000000000 -104.965000000000000 7786
Fri Apr 17 00:00:00 GMT 2009 agolnar American linden Tilia americana First Leaf 39.000000000000000 -104.000000000000000 7904
Mon Apr 27 00:00:00 GMT 2009 agolnar American linden Tilia americana All Leaves Unfolded 39.000000000000000 -104.000000000000000 7905
Mon May 04 00:00:00 GMT 2009 Peleverrin American linden Tilia americana First Leaf 39.000000000000000 -104.000000000000000 7894
Wed May 06 00:00:00 GMT 2009 Peleverrin American linden Tilia americana All Leaves Unfolded 39.000000000000000 -104.000000000000000 7895
Mon May 04 00:00:00 GMT 2009 Peleverrin American linden Tilia americana 50% Color 39.000000000000000 -104.000000000000000 7896
Wed May 06 00:00:00 GMT 2009 Lab3Phenology American linden Tilia americana First Leaf 39.000000000000000 -104.000000000000000 7936
Sat May 09 00:00:00 GMT 2009 Lab3Phenology American linden Tilia americana All Leaves Unfolded 39.000000000000000 -104.000000000000000 7937
Wed May 06 00:00:00 GMT 2009 anonymous American linden Tilia americana First Leaf 39.400000000000000 -104.570000000000000 7930
Mon May 18 00:00:00 GMT 2009 anonymous American linden Tilia americana All Leaves Unfolded 39.400000000000000 -104.570000000000000 7931
Wed May 06 00:00:00 GMT 2009 athiros@du.edu American linden Tilia americana First Leaf 39.676200000000000 -104.965000000000000 7906
Mon May 11 00:00:00 GMT 2009 athiros@du.edu American linden Tilia americana All Leaves Unfolded 39.676200000000000 -104.965000000000000 7907
Fri May 08 00:00:00 GMT 2009 KelseyJMcC American linden Tilia americana First Leaf 39.000000000000000 -104.000000000000000 7910
Sat May 09 00:00:00 GMT 2009 KelseyJMcC American linden Tilia americana All Leaves Unfolded 39.000000000000000 -104.000000000000000 7911
Wed May 06 00:00:00 GMT 2009 tjhockey75 American linden Tilia americana First Leaf 39.667000000000000 -104.962000000000000 7971
Wed May 13 00:00:00 GMT 2009 tjhockey75 American linden Tilia americana All Leaves Unfolded 39.667000000000000 -104.962000000000000 7972
Fri May 08 00:00:00 GMT 2009 tjhockey75 American linden Tilia americana 50% Color 39.667000000000000 -104.962000000000000 7973
Wed May 06 00:00:00 GMT 2009 nickpisciotta American linden Tilia americana First Leaf 39.000000000000000 -104.000000000000000 7981
Sat May 09 00:00:00 GMT 2009 nickpisciotta American linden Tilia americana All Leaves Unfolded 39.000000000000000 -104.000000000000000 7982
Sun May 10 00:00:00 GMT 2009 nickpisciotta American linden Tilia americana 50% Color 39.000000000000000 -104.000000000000000 7983
Wed Apr 22 00:00:00 GMT 2009 megan.foley@du.edu American linden Tilia americana First Leaf 39.000000000000000 -104.000000000000000 7926
Fri May 01 00:00:00 GMT 2009 emilyjhuth American linden Tilia americana First Leaf 39.000000000000000 -104.000000000000000 7927
Wed May 06 00:00:00 GMT 2009 emilyjhuth American linden Tilia americana All Leaves Unfolded 39.000000000000000 -104.000000000000000 7928
Fri May 01 00:00:00 GMT 2009 emilyjhuth American linden Tilia americana 50% Color 39.000000000000000 -104.000000000000000 7929
Sat May 23 00:00:00 GMT 2009 palaback American linden Tilia americana All Leaves Unfolded 46.866700000000000 -113.983000000000000 8680
Mon Jul 13 00:00:00 GMT 2009 palaback American linden Tilia americana First Flower 46.866700000000000 -113.983000000000000 8681
Wed Sep 30 00:00:00 GMT 2009 palaback American linden Tilia americana 50% Color 46.866700000000000 -113.983000000000000 8682
Thu Oct 15 00:00:00 GMT 2009 anonymous American linden Tilia americana 50% Leaf Fall 44.475900000000000 -73.212100000000000 8768
Wed Nov 04 00:00:00 GMT 2009 Toniteatea American linden Tilia americana First Leaf 35.709300000000000 -86.395500000000000 8894
Wed Nov 04 00:00:00 GMT 2009 Toniteatea American linden Tilia americana First Leaf 35.709300000000000 -86.395500000000000 8893
Sat Oct 03 00:00:00 GMT 2009 goneback2u2 American linden Tilia americana 50% Color 35.781100000000000 -86.324700000000000 8914
Fri Oct 23 00:00:00 GMT 2009 anonymous American linden Tilia americana All Leaves Unfolded 45.120000000000000 -95.011300000000000 8923
Sat Apr 03 00:00:00 GMT 2010 Rich American linden Tilia americana First Flower 40.002400000000000 -80.650600000000000 9420
Tue Apr 06 00:00:00 GMT 2010 Rich American linden Tilia americana Full Flower 40.002400000000000 -80.650600000000000 9469
Tue Apr 06 00:00:00 GMT 2010 Rich American linden Tilia americana First Leaf 40.002400000000000 -80.650600000000000 9527
Mon Apr 12 00:00:00 GMT 2010 Rich American linden Tilia americana All Leaves Unfolded 40.002400000000000 -80.650600000000000 9528
Thu Apr 15 00:00:00 GMT 2010 Rich American linden Tilia americana End of Flowering 40.002400000000000 -80.650600000000000 9779
Mon Apr 05 00:00:00 GMT 2010 wtwinter American linden Tilia americana First Leaf 43.035300000000000 -76.236500000000000 10082
Tue Apr 13 00:00:00 GMT 2010 wtwinter American linden Tilia americana All Leaves Unfolded 43.035300000000000 -76.236500000000000 10083
Wed Apr 28 00:00:00 GMT 2010 Derek McKay American linden Tilia americana First Leaf 45.317400000000000 -92.158900000000000 10233
Wed May 05 00:00:00 GMT 2010 Derek McKay American linden Tilia americana All Leaves Unfolded 45.317400000000000 -92.158900000000000 10332
Fri May 07 00:00:00 GMT 2010 bill1b American linden Tilia americana First Leaf 39.924500000000000 -105.049000000000000 10498
Mon Oct 18 00:00:00 GMT 2010 Derek McKay American linden Tilia americana 50% Leaf Fall 45.317400000000000 -92.158900000000000 11338
Sun Oct 24 00:00:00 GMT 2010 palaback American linden Tilia americana 50% Leaf Fall 40.307500000000000 -105.084000000000000 11369
Mon Oct 11 00:00:00 GMT 2010 palaback American linden Tilia americana 50% Color 40.307500000000000 -105.084000000000000 11377
Mon Mar 21 00:00:00 GMT 2011 morris42 American linden Tilia americana First Leaf 39.184200000000000 -86.541000000000000 12075
Mon Apr 04 00:00:00 GMT 2011 morris42 American linden Tilia americana All Leaves Unfolded 39.184200000000000 -86.541000000000000 12076
Mon May 16 00:00:00 GMT 2011 Derek McKay American linden Tilia americana First Leaf 45.317400000000000 -92.158900000000000 12557
Fri May 20 00:00:00 GMT 2011 Derek McKay American linden Tilia americana All Leaves Unfolded 45.317400000000000 -92.158900000000000 12593
Sat Jun 04 00:00:00 GMT 2011 palaback American linden Tilia americana All Leaves Unfolded 40.307500000000000 -105.084000000000000 13014
Sun Jun 26 00:00:00 GMT 2011 palaback American linden Tilia americana First Flower 40.307500000000000 -105.084000000000000 13015
Sat Sep 17 00:00:00 GMT 2011 sandrah American linden Tilia americana Fruit (Late) 40.010000000000000 -105.260000000000000 13256
Sat Sep 17 00:00:00 GMT 2011 palaback American linden Tilia americana Leaves Changing Color (Early) 40.307500000000000 -105.084000000000000 13258
Mon Jul 04 00:00:00 GMT 2011 palaback American linden Tilia americana Full Flower 40.307500000000000 -105.084000000000000 13454
Tue Sep 27 00:00:00 GMT 2011 palaback American linden Tilia americana 50% Color 40.307500000000000 -105.084000000000000 13455
Thu Oct 13 00:00:00 GMT 2011 palaback American linden Tilia americana Leaves Changing Color (Late) 43.363500000000000 -72.094500000000000 13639
Thu Oct 13 00:00:00 GMT 2011 palaback American linden Tilia americana Leaves Dropping (Middle) 43.363500000000000 -72.094500000000000 13640
Tue Oct 11 00:00:00 GMT 2011 palaback American linden Tilia americana Leaves Changing Color (Middle) 43.402300000000000 -71.883500000000000 13623
Thu Oct 13 00:00:00 GMT 2011 palaback American linden Tilia americana Leaves Changing Color (Late) 43.363500000000000 -72.094500000000000 13682
Thu Oct 13 00:00:00 GMT 2011 palaback American linden Tilia americana Leaves Dropping (Middle) 43.363500000000000 -72.094500000000000 13683
Sat Oct 22 00:00:00 GMT 2011 palaback American linden Tilia americana 50% Leaf Fall 40.307500000000000 -105.084000000000000 13725
Sat Nov 12 00:00:00 GMT 2011 katherinefogarty@comcast.net_EnvSci2011_reporter1 American linden Tilia americana 50% Color 42.315800000000000 -71.083200000000000 13920
Sat Nov 12 00:00:00 GMT 2011 katherinefogarty@comcast.net_EnvSci2011_reporter1 American linden Tilia americana 50% Leaf Fall 42.315800000000000 -71.083200000000000 13921
Sat Mar 24 00:00:00 GMT 2012 zintc American linden Tilia americana First Leaf 40.699700000000000 -73.995000000000000 14461
Fri Mar 30 00:00:00 GMT 2012 sonyaguidry@yahoo.com American linden Tilia americana First Leaf 29.042400000000000 -80.939500000000000 14588
Tue Mar 27 00:00:00 GMT 2012 tuckerasso American linden Tilia americana First Leaf 37.231600000000000 -76.663600000000000 14708
Tue Apr 03 00:00:00 GMT 2012 zintc American linden Tilia americana All Leaves Unfolded 40.699700000000000 -73.995000000000000 14712
Tue Apr 03 00:00:00 GMT 2012 tuckerasso American linden Tilia americana All Leaves Unfolded 37.231600000000000 -76.663600000000000 14745
Thu Apr 12 00:00:00 GMT 2012 CoreyPalmer American linden Tilia americana Leaves Unfolding (Early) 42.149300000000000 -87.785500000000000 14938
Mon Apr 16 00:00:00 GMT 2012 kaoster American linden Tilia americana Leaves Unfolding (Middle) 44.476900000000000 -73.196500000000000 15033
Wed Apr 18 00:00:00 GMT 2012 CoreyPalmer American linden Tilia americana Leaves Unfolding (Middle) 42.149300000000000 -87.785500000000000 15080
Mon Apr 16 00:00:00 GMT 2012 bill1b American linden Tilia americana First Leaf 39.924500000000000 -105.049000000000000 15139
Wed Apr 25 00:00:00 GMT 2012 palaback American linden Tilia americana All Leaves Unfolded 40.307500000000000 -105.084000000000000 15375
Thu May 03 00:00:00 GMT 2012 CoreyPalmer American linden Tilia americana Leaves Unfolding (Late) 42.149300000000000 -87.785500000000000 15458
Wed May 09 00:00:00 GMT 2012 CoreyPalmer American linden Tilia americana Leaves Unfolding (Late) 42.149300000000000 -87.785500000000000 15570
Fri Dec 04 00:00:00 GMT 2015 katherinefogarty@comcast.net_EnvSci2011_reporter1 American linden Tilia americana First Leaf 42.315800000000000 -71.083200000000000 15546
Thu May 17 00:00:00 GMT 2012 katherinefogarty@comcast.net_EnvSci2011_reporter1 American linden Tilia americana All Leaves Unfolded 42.315800000000000 -71.083200000000000 15547
Wed Apr 25 00:00:00 GMT 2012 katherinefogarty@comcast.net_EnvSci2011_reporter1 American linden Tilia americana 50% Color 42.315800000000000 -71.083200000000000 15548
Sun May 13 00:00:00 GMT 2012 Rebeccapanko American linden Tilia americana Flowers (Middle) 40.669400000000000 -73.925200000000000 15597
Thu May 17 00:00:00 GMT 2012 CoreyPalmer American linden Tilia americana Leaves Unfolding (Late) 42.149300000000000 -87.785500000000000 15706
Mon Jun 18 00:00:00 GMT 2012 palaback American linden Tilia americana First Flower 40.307500000000000 -105.084000000000000 16070
Thu Jun 14 00:00:00 GMT 2012 victocam American linden Tilia americana Full Flower 40.667700000000000 -73.961800000000000 16071
Thu Jun 14 00:00:00 GMT 2012 victocam_Brooklyn_Homeschool_reporter2 American linden Tilia americana Full Flower 40.667700000000000 -73.961800000000000 16093
Sun Jun 24 00:00:00 GMT 2012 palaback American linden Tilia americana Full Flower 40.307500000000000 -105.084000000000000 16129
Sat May 19 00:00:00 GMT 2012 tuckerasso American linden Tilia americana First Flower 37.231600000000000 -76.663600000000000 16564
Fri May 25 00:00:00 GMT 2012 tuckerasso American linden Tilia americana Full Flower 37.231600000000000 -76.663600000000000 16565
Mon Sep 10 00:00:00 GMT 2012 sandrah American linden Tilia americana Fruit (Late) 43.038900000000000 -87.891600000000000 16577
Sat Oct 13 00:00:00 GMT 2012 PCILAINSLIE American linden Tilia americana 50% Leaf Fall 41.971000000000000 -87.700500000000000 17053
Sat Oct 20 00:00:00 GMT 2012 palaback American linden Tilia americana 50% Color 40.307500000000000 -105.084000000000000 17230
Sat Oct 27 00:00:00 GMT 2012 palaback American linden Tilia americana 50% Leaf Fall 40.307500000000000 -105.084000000000000 17231
Sun Nov 04 00:00:00 GMT 2012 squizzle-1 American linden Tilia americana 50% Leaf Fall 42.388900000000000 -71.149000000000000 17507
Tue Mar 27 00:00:00 GMT 2012 tuckerasso American linden Tilia americana First Leaf 37.231600000000000 -76.663600000000000 17642
Tue Apr 03 00:00:00 GMT 2012 tuckerasso American linden Tilia americana All Leaves Unfolded 37.231600000000000 -76.663600000000000 17643
Sat May 19 00:00:00 GMT 2012 tuckerasso American linden Tilia americana First Flower 37.231600000000000 -76.663600000000000 17644
Fri May 25 00:00:00 GMT 2012 tuckerasso American linden Tilia americana Full Flower 37.231600000000000 -76.663600000000000 17645
Tue Sep 11 00:00:00 GMT 2012 tuckerasso American linden Tilia americana First Ripe Fruit 37.231600000000000 -76.663600000000000 17646
Thu Oct 18 00:00:00 GMT 2012 tuckerasso American linden Tilia americana Full Fruiting 37.231600000000000 -76.663600000000000 17647
Thu Nov 15 00:00:00 GMT 2012 tuckerasso American linden Tilia americana 50% Color 37.231600000000000 -76.663600000000000 17648
Thu Jan 31 00:00:00 GMT 2013 steph2000 American linden Tilia americana Leaves Unfolding (Early) 42.597300000000000 -83.090700000000000 17933
Mon Apr 08 00:00:00 GMT 2013 zintc American linden Tilia americana Bud Burst 40.699700000000000 -73.995000000000000 19028
Fri Apr 12 00:00:00 GMT 2013 zintc American linden Tilia americana First Leaf 40.699700000000000 -73.995000000000000 19029
Fri Apr 19 00:00:00 GMT 2013 zintc American linden Tilia americana All Leaves Unfolded 40.699700000000000 -73.995000000000000 19030
Mon May 13 00:00:00 GMT 2013 JESD American linden Tilia americana Bud Burst 39.995900000000000 -105.095000000000000 20265
Tue May 14 00:00:00 GMT 2013 JayDee970 American linden Tilia americana Bud Burst 40.462100000000000 -105.036000000000000 20387
Tue May 14 00:00:00 GMT 2013 JESD American linden Tilia americana First Leaf 39.995900000000000 -105.095000000000000 20393
Fri May 17 00:00:00 GMT 2013 JayDee970 American linden Tilia americana First Leaf 40.462100000000000 -105.036000000000000 20487
Sun May 19 00:00:00 GMT 2013 JESD American linden Tilia americana All Leaves Unfolded 39.995900000000000 -105.095000000000000 20523
Mon May 20 00:00:00 GMT 2013 JayDee970 American linden Tilia americana All Leaves Unfolded 40.462100000000000 -105.036000000000000 20704
Tue Jun 18 00:00:00 GMT 2013 snewman14 American linden Tilia americana Flowers (Early) 40.016000000000000 -105.245000000000000 21215
Tue Jun 25 00:00:00 GMT 2013 JESD American linden Tilia americana First Flower 39.995900000000000 -105.095000000000000 21429
Sat Jun 29 00:00:00 GMT 2013 JESD American linden Tilia americana Full Flower 39.995900000000000 -105.095000000000000 21430
Mon Sep 23 00:00:00 GMT 2013 Budburstastor303 American linden Tilia americana First Ripe Fruit 42.045600000000000 -87.691100000000000 22822
Tue Oct 15 00:00:00 GMT 2013 Budburstastor303 American linden Tilia americana Full Fruiting 42.045600000000000 -87.691100000000000 22832
Tue Oct 29 00:00:00 GMT 2013 Budburstastor303 American linden Tilia americana 50% Color 42.045600000000000 -87.691100000000000 22833
Mon Nov 18 00:00:00 GMT 2013 kckorsta American linden Tilia americana Leaves Dropping (Late) 39.174900000000000 -86.515000000000000 23550
Sat Apr 13 00:00:00 GMT 2013 tuckerasso American linden Tilia americana All Leaves Unfolded 37.231600000000000 -76.663600000000000 24580
Sun Apr 28 00:00:00 GMT 2013 tuckerasso American linden Tilia americana First Flower 37.231600000000000 -76.663600000000000 24581
Sat May 04 00:00:00 GMT 2013 tuckerasso American linden Tilia americana Full Flower 37.231600000000000 -76.663600000000000 24582
Tue Sep 10 00:00:00 GMT 2013 tuckerasso American linden Tilia americana First Ripe Fruit 37.231600000000000 -76.663600000000000 24583
Mon Nov 25 00:00:00 GMT 2013 tuckerasso American linden Tilia americana Full Fruiting 37.231600000000000 -76.663600000000000 24584
Mon Nov 25 00:00:00 GMT 2013 tuckerasso American linden Tilia americana 50% Color 37.231600000000000 -76.663600000000000 24585
Mon Nov 25 00:00:00 GMT 2013 tuckerasso American linden Tilia americana 50% Leaf Fall 37.231600000000000 -76.663600000000000 24586
Tue Apr 14 00:00:00 GMT 2015 tuckerasso American linden Tilia americana First Leaf 37.231600000000000 -76.663600000000000 61662
Sat Feb 21 00:00:00 GMT 2015 tuckerasso American linden Tilia americana All Leaves Unfolded 37.231600000000000 -76.663600000000000 61663
Wed Apr 22 00:00:00 GMT 2015 tuckerasso American linden Tilia americana First Flower 37.231600000000000 -76.663600000000000 61664
Wed Apr 29 00:00:00 GMT 2015 tuckerasso American linden Tilia americana Full Flower 37.231600000000000 -76.663600000000000 61665
Tue Oct 13 00:00:00 GMT 2015 tuckerasso American linden Tilia americana Full Fruiting 37.231600000000000 -76.663600000000000 61666
Tue Nov 17 00:00:00 GMT 2015 tuckerasso American linden Tilia americana 50% Color 37.231600000000000 -76.663600000000000 61667
Sun Apr 10 00:00:00 GMT 2016 caitlinhornacek American linden Tilia americana Leaves Unfolding (Middle) 39.200000000000000 -86.500000000000000 64205
Sun Apr 10 00:00:00 GMT 2016 caitlinhornacek American linden Tilia americana Leaves Changing Color (None) 39.200000000000000 -86.500000000000000 64206
Sun Apr 10 00:00:00 GMT 2016 caitlinhornacek American linden Tilia americana Leaves Dropping (None) 39.200000000000000 -86.500000000000000 64207
Sun Apr 10 00:00:00 GMT 2016 caitlinhornacek American linden Tilia americana Flowers (Middle) 39.200000000000000 -86.500000000000000 64208
Sun Apr 10 00:00:00 GMT 2016 caitlinhornacek American linden Tilia americana Fruit (None) 39.200000000000000 -86.500000000000000 64209
Thu Apr 14 00:00:00 GMT 2016 jstrong3 American linden Tilia americana Leaves Unfolding (Middle) 38.835270000000000 -77.309480000000000 64601
Thu Apr 14 00:00:00 GMT 2016 jstrong3 American linden Tilia americana Leaves Changing Color (None) 38.835270000000000 -77.309480000000000 64602
Thu Apr 14 00:00:00 GMT 2016 jstrong3 American linden Tilia americana Leaves Dropping (None) 38.835270000000000 -77.309480000000000 64603
Thu Apr 14 00:00:00 GMT 2016 jstrong3 American linden Tilia americana Flowers (Early) 38.835270000000000 -77.309480000000000 64604
Thu Apr 14 00:00:00 GMT 2016 jstrong3 American linden Tilia americana Fruit (None) 38.835270000000000 -77.309480000000000 64605
Sun Apr 17 00:00:00 GMT 2016 allib001 American linden Tilia americana Bud Burst 45.053700000000000 -92.812700000000000 64698
Mon Apr 25 00:00:00 GMT 2016 katfadigan American linden Tilia americana Leaves Unfolding (None) 40.131380000000000 -75.137030000000000 65262
Mon Apr 25 00:00:00 GMT 2016 katfadigan American linden Tilia americana Leaves Changing Color (None) 40.131380000000000 -75.137030000000000 65263
Mon Apr 25 00:00:00 GMT 2016 katfadigan American linden Tilia americana Leaves Dropping (None) 40.131380000000000 -75.137030000000000 65264
Mon Apr 25 00:00:00 GMT 2016 katfadigan American linden Tilia americana Flowers (Early) 40.131380000000000 -75.137030000000000 65265
Mon Apr 25 00:00:00 GMT 2016 katfadigan American linden Tilia americana Fruit (None) 40.131380000000000 -75.137030000000000 65266
Mon Apr 25 00:00:00 GMT 2016 allib001 American linden Tilia americana First Leaf 45.053700000000000 -92.812700000000000 65578
Sat Apr 02 00:00:00 GMT 2016 alyssamathematics American linden Tilia americana Bud Burst 40.640107000000000 -73.958094000000000 65951
Tue Apr 05 00:00:00 GMT 2016 alyssamathematics American linden Tilia americana First Leaf 40.640107000000000 -73.958094000000000 65952
Tue Apr 12 00:00:00 GMT 2016 alyssamathematics American linden Tilia americana All Leaves Unfolded 40.640107000000000 -73.958094000000000 65953
Fri Apr 29 00:00:00 GMT 2016 azram American linden Tilia americana Leaves Unfolding (Late) 40.680017000000000 -73.947877000000000 66030
Fri Apr 29 00:00:00 GMT 2016 azram American linden Tilia americana Leaves Unfolding (Late) 40.680017000000000 -73.947877000000000 66031
Fri Apr 29 00:00:00 GMT 2016 azram American linden Tilia americana Leaves Changing Color (Late) 40.680017000000000 -73.947877000000000 66032
Fri Apr 29 00:00:00 GMT 2016 azram American linden Tilia americana Leaves Changing Color (Late) 40.680017000000000 -73.947877000000000 66033
Fri Apr 29 00:00:00 GMT 2016 azram American linden Tilia americana Leaves Dropping (Early) 40.680017000000000 -73.947877000000000 66034
Fri Apr 29 00:00:00 GMT 2016 azram American linden Tilia americana Leaves Dropping (Early) 40.680017000000000 -73.947877000000000 66035
Fri Apr 29 00:00:00 GMT 2016 azram American linden Tilia americana Flowers (Middle) 40.680017000000000 -73.947877000000000 66036
Fri Apr 29 00:00:00 GMT 2016 azram American linden Tilia americana Flowers (Middle) 40.680017000000000 -73.947877000000000 66037
Fri Apr 29 00:00:00 GMT 2016 azram American linden Tilia americana Fruit (None) 40.680017000000000 -73.947877000000000 66038
Fri Apr 29 00:00:00 GMT 2016 azram American linden Tilia americana Fruit (None) 40.680017000000000 -73.947877000000000 66039
Mon May 02 00:00:00 GMT 2016 allib001 American linden Tilia americana All Leaves Unfolded 45.053700000000000 -92.812700000000000 66140
Mon May 09 00:00:00 GMT 2016 collinmcl12 American linden Tilia americana Leaves Unfolding (Middle) 42.666987000000000 -71.120907000000000 66587
Mon May 09 00:00:00 GMT 2016 collinmcl12 American linden Tilia americana Leaves Changing Color (None) 42.666987000000000 -71.120907000000000 66588
Mon May 09 00:00:00 GMT 2016 collinmcl12 American linden Tilia americana Leaves Dropping (None) 42.666987000000000 -71.120907000000000 66589
Mon May 09 00:00:00 GMT 2016 collinmcl12 American linden Tilia americana Flowers (Early) 42.666987000000000 -71.120907000000000 66590
Mon May 09 00:00:00 GMT 2016 collinmcl12 American linden Tilia americana Fruit (None) 42.666987000000000 -71.120907000000000 66591
Tue May 10 00:00:00 GMT 2016 mcphersonk American linden Tilia americana Leaves Unfolding (Middle) 42.666604000000000 -71.120955000000000 66644
Tue May 10 00:00:00 GMT 2016 mcphersonk American linden Tilia americana Leaves Changing Color (None) 42.666604000000000 -71.120955000000000 66645
Tue May 10 00:00:00 GMT 2016 mcphersonk American linden Tilia americana Leaves Dropping (None) 42.666604000000000 -71.120955000000000 66646
Tue May 10 00:00:00 GMT 2016 mcphersonk American linden Tilia americana Flowers (Early) 42.666604000000000 -71.120955000000000 66647
Tue May 10 00:00:00 GMT 2016 mcphersonk American linden Tilia americana Fruit (None) 42.666604000000000 -71.120955000000000 66648
Wed May 11 00:00:00 GMT 2016 carlomagnov American linden Tilia americana Leaves Unfolding (Early) 51.211200000000000 -1.491920000000000 66919
Wed May 11 00:00:00 GMT 2016 carlomagnov American linden Tilia americana Leaves Changing Color (None) 51.211200000000000 -1.491920000000000 66920
Wed May 11 00:00:00 GMT 2016 carlomagnov American linden Tilia americana Leaves Dropping (None) 51.211200000000000 -1.491920000000000 66921
Wed May 11 00:00:00 GMT 2016 carlomagnov American linden Tilia americana Flowers (None) 51.211200000000000 -1.491920000000000 66922
Wed May 11 00:00:00 GMT 2016 carlomagnov American linden Tilia americana Fruit (None) 51.211200000000000 -1.491920000000000 66923
Mon Sep 12 00:00:00 GMT 2016 kiaradavis3 American linden Tilia americana Leaves Unfolding (None) 38.914710000000000 -77.535440000000000 69793
Mon Sep 12 00:00:00 GMT 2016 kiaradavis3 American linden Tilia americana Leaves Changing Color (None) 38.914710000000000 -77.535440000000000 69794
Mon Sep 12 00:00:00 GMT 2016 kiaradavis3 American linden Tilia americana Leaves Dropping (Early) 38.914710000000000 -77.535440000000000 69795
Mon Sep 12 00:00:00 GMT 2016 kiaradavis3 American linden Tilia americana Flowers (None) 38.914710000000000 -77.535440000000000 69796
Mon Sep 12 00:00:00 GMT 2016 kiaradavis3 American linden Tilia americana Fruit (None) 38.914710000000000 -77.535440000000000 69797
Wed Oct 05 00:00:00 GMT 2016 allib001 American linden Tilia americana 50% Color 45.053700000000000 -92.812700000000000 70570
Fri Sep 30 00:00:00 GMT 2016 Turki098 American linden Tilia americana Leaves Unfolding (Early) 40.000000000000000 -100.000000000000000 70861
Fri Sep 30 00:00:00 GMT 2016 Turki098 American linden Tilia americana Leaves Unfolding (Early) 40.000000000000000 -100.000000000000000 70862
Fri Sep 30 00:00:00 GMT 2016 Turki098 American linden Tilia americana Leaves Unfolding (Early) 40.000000000000000 -100.000000000000000 70863
Fri Sep 30 00:00:00 GMT 2016 Turki098 American linden Tilia americana Leaves Unfolding (Early) 40.000000000000000 -100.000000000000000 70864
Fri Sep 30 00:00:00 GMT 2016 Turki098 American linden Tilia americana Leaves Changing Color (None) 40.000000000000000 -100.000000000000000 70865
Fri Sep 30 00:00:00 GMT 2016 Turki098 American linden Tilia americana Leaves Changing Color (None) 40.000000000000000 -100.000000000000000 70866
Fri Sep 30 00:00:00 GMT 2016 Turki098 American linden Tilia americana Leaves Changing Color (None) 40.000000000000000 -100.000000000000000 70867
Fri Sep 30 00:00:00 GMT 2016 Turki098 American linden Tilia americana Leaves Changing Color (None) 40.000000000000000 -100.000000000000000 70868
Fri Sep 30 00:00:00 GMT 2016 Turki098 American linden Tilia americana Leaves Dropping (Early) 40.000000000000000 -100.000000000000000 70869
Fri Sep 30 00:00:00 GMT 2016 Turki098 American linden Tilia americana Leaves Dropping (Early) 40.000000000000000 -100.000000000000000 70870
Fri Sep 30 00:00:00 GMT 2016 Turki098 American linden Tilia americana Leaves Dropping (Early) 40.000000000000000 -100.000000000000000 70871
Fri Sep 30 00:00:00 GMT 2016 Turki098 American linden Tilia americana Leaves Dropping (Early) 40.000000000000000 -100.000000000000000 70872
Fri Sep 30 00:00:00 GMT 2016 Turki098 American linden Tilia americana Flowers (Middle) 40.000000000000000 -100.000000000000000 70873
Fri Sep 30 00:00:00 GMT 2016 Turki098 American linden Tilia americana Flowers (Middle) 40.000000000000000 -100.000000000000000 70874
Fri Sep 30 00:00:00 GMT 2016 Turki098 American linden Tilia americana Flowers (Middle) 40.000000000000000 -100.000000000000000 70875
Fri Sep 30 00:00:00 GMT 2016 Turki098 American linden Tilia americana Flowers (Middle) 40.000000000000000 -100.000000000000000 70876
Fri Sep 30 00:00:00 GMT 2016 Turki098 American linden Tilia americana Fruit (None) 40.000000000000000 -100.000000000000000 70877
Fri Sep 30 00:00:00 GMT 2016 Turki098 American linden Tilia americana Fruit (None) 40.000000000000000 -100.000000000000000 70878
Fri Sep 30 00:00:00 GMT 2016 Turki098 American linden Tilia americana Fruit (None) 40.000000000000000 -100.000000000000000 70879
Fri Sep 30 00:00:00 GMT 2016 Turki098 American linden Tilia americana Fruit (None) 40.000000000000000 -100.000000000000000 70880
Fri Oct 07 00:00:00 GMT 2016 Turki098 American linden Tilia americana Leaves Unfolding (Middle) 38.645590000000000 -90.505460000000000 70886
Fri Oct 07 00:00:00 GMT 2016 Turki098 American linden Tilia americana Leaves Changing Color (Early) 38.645590000000000 -90.505460000000000 70887
Fri Oct 07 00:00:00 GMT 2016 Turki098 American linden Tilia americana Leaves Dropping (Middle) 38.645590000000000 -90.505460000000000 70888
Fri Oct 07 00:00:00 GMT 2016 Turki098 American linden Tilia americana Flowers (Late) 38.645590000000000 -90.505460000000000 70889
Fri Oct 07 00:00:00 GMT 2016 Turki098 American linden Tilia americana Fruit (Middle) 38.645590000000000 -90.505460000000000 70890
Mon Oct 17 00:00:00 GMT 2016 hrizzo American linden Tilia americana 50% Color 40.000000000000000 -100.000000000000000 73201
Mon Nov 07 00:00:00 GMT 2016 hrizzo American linden Tilia americana 50% Leaf Fall 40.000000000000000 -100.000000000000000 73202
Tue Oct 25 00:00:00 GMT 2016 audcouch American linden Tilia americana 50% Color 39.161812000000000 -86.564605000000000 73215
Tue Nov 15 00:00:00 GMT 2016 rthobbs American linden Tilia americana 50% Color 39.160395000000000 -86.532723000000000 73363
Sun Nov 13 00:00:00 GMT 2016 rthobbs American linden Tilia americana 50% Leaf Fall 39.160395000000000 -86.532723000000000 73364
Thu Nov 17 00:00:00 GMT 2016 mduffy98 American linden Tilia americana Leaves Unfolding (Late) 40.767250000000000 -73.481200000000000 73688
Thu Nov 17 00:00:00 GMT 2016 mduffy98 American linden Tilia americana Leaves Changing Color (Early) 40.767250000000000 -73.481200000000000 73689
Thu Nov 17 00:00:00 GMT 2016 mduffy98 American linden Tilia americana Leaves Dropping (Early) 40.767250000000000 -73.481200000000000 73690
Thu Nov 17 00:00:00 GMT 2016 mduffy98 American linden Tilia americana Flowers (None) 40.767250000000000 -73.481200000000000 73691
Thu Nov 17 00:00:00 GMT 2016 mduffy98 American linden Tilia americana Fruit (None) 40.767250000000000 -73.481200000000000 73692
Fri Oct 21 00:00:00 GMT 2016 allib001 American linden Tilia americana 50% Leaf Fall 45.053700000000000 -92.812700000000000 74076
Tue Jan 24 00:00:00 GMT 2017 mariepg123 American linden Tilia americana Leaves Unfolding (None) 39.790369000000000 -105.032457000000000 74529
Tue Jan 24 00:00:00 GMT 2017 mariepg123 American linden Tilia americana Leaves Changing Color (None) 39.790369000000000 -105.032457000000000 74530
Tue Jan 24 00:00:00 GMT 2017 mariepg123 American linden Tilia americana Leaves Dropping (None) 39.790369000000000 -105.032457000000000 74531
Tue Jan 24 00:00:00 GMT 2017 mariepg123 American linden Tilia americana Flowers (None) 39.790369000000000 -105.032457000000000 74532
Tue Jan 24 00:00:00 GMT 2017 mariepg123 American linden Tilia americana Fruit (None) 39.790369000000000 -105.032457000000000 74533
Thu Mar 23 00:00:00 GMT 2017 mariepg123 American linden Tilia americana Leaves Unfolding (None) 39.790426000000000 -105.031883000000000 76206
Thu Mar 23 00:00:00 GMT 2017 mariepg123 American linden Tilia americana Leaves Changing Color (None) 39.790426000000000 -105.031883000000000 76207
Thu Mar 23 00:00:00 GMT 2017 mariepg123 American linden Tilia americana Leaves Dropping (None) 39.790426000000000 -105.031883000000000 76208
Thu Mar 23 00:00:00 GMT 2017 mariepg123 American linden Tilia americana Flowers (None) 39.790426000000000 -105.031883000000000 76209
Thu Mar 23 00:00:00 GMT 2017 mariepg123 American linden Tilia americana Fruit (None) 39.790426000000000 -105.031883000000000 76210
Sun Apr 09 00:00:00 GMT 2017 yeqiliu American linden Tilia americana Leaves Unfolding (None) 39.167250000000000 -86.511950000000000 77042
Sun Apr 09 00:00:00 GMT 2017 yeqiliu American linden Tilia americana Leaves Changing Color (None) 39.167250000000000 -86.511950000000000 77043
Sun Apr 09 00:00:00 GMT 2017 yeqiliu American linden Tilia americana Leaves Dropping (None) 39.167250000000000 -86.511950000000000 77044
Sun Apr 09 00:00:00 GMT 2017 yeqiliu American linden Tilia americana Flowers (None) 39.167250000000000 -86.511950000000000 77045
Sun Apr 09 00:00:00 GMT 2017 yeqiliu American linden Tilia americana Fruit (None) 39.167250000000000 -86.511950000000000 77046
Sun Apr 09 00:00:00 GMT 2017 yeqiliu American linden Tilia americana Leaves Unfolding (Early) 39.168290000000000 -86.516870000000000 77048
Sun Apr 09 00:00:00 GMT 2017 yeqiliu American linden Tilia americana Leaves Changing Color (Early) 39.168290000000000 -86.516870000000000 77049
Sun Apr 09 00:00:00 GMT 2017 yeqiliu American linden Tilia americana Leaves Dropping (Early) 39.168290000000000 -86.516870000000000 77050
Sun Apr 09 00:00:00 GMT 2017 yeqiliu American linden Tilia americana Flowers (None) 39.168290000000000 -86.516870000000000 77051
Sun Apr 09 00:00:00 GMT 2017 yeqiliu American linden Tilia americana Fruit (None) 39.168290000000000 -86.516870000000000 77052
Sun Apr 09 00:00:00 GMT 2017 yeqiliu American linden Tilia americana Leaves Unfolding (Early) 39.171030000000000 -86.516900000000000 77054
Sun Apr 09 00:00:00 GMT 2017 yeqiliu American linden Tilia americana Leaves Changing Color (Early) 39.171030000000000 -86.516900000000000 77055
Sun Apr 09 00:00:00 GMT 2017 yeqiliu American linden Tilia americana Leaves Dropping (Early) 39.171030000000000 -86.516900000000000 77056
Sun Apr 09 00:00:00 GMT 2017 yeqiliu American linden Tilia americana Flowers (None) 39.171030000000000 -86.516900000000000 77057
Sun Apr 09 00:00:00 GMT 2017 yeqiliu American linden Tilia americana Fruit (None) 39.171030000000000 -86.516900000000000 77058
Sun Apr 09 00:00:00 GMT 2017 yeqiliu American linden Tilia americana Leaves Unfolding (Early) 39.152850000000000 -86.489890000000000 77064
Sun Apr 09 00:00:00 GMT 2017 yeqiliu American linden Tilia americana Leaves Changing Color (Early) 39.152850000000000 -86.489890000000000 77065
Sun Apr 09 00:00:00 GMT 2017 yeqiliu American linden Tilia americana Leaves Dropping (Early) 39.152850000000000 -86.489890000000000 77066
Sun Apr 09 00:00:00 GMT 2017 yeqiliu American linden Tilia americana Flowers (None) 39.152850000000000 -86.489890000000000 77067
Sun Apr 09 00:00:00 GMT 2017 yeqiliu American linden Tilia americana Fruit (None) 39.152850000000000 -86.489890000000000 77068
Sun Apr 16 00:00:00 GMT 2017 Scutacarus1964 American linden Tilia americana Bud Burst 39.398760000000000 -101.029760000000000 78247
Sun Apr 16 00:00:00 GMT 2017 dyou American linden Tilia americana Leaves Unfolding (Middle) 37.441770000000000 -122.138830000000000 78291
Sun Apr 16 00:00:00 GMT 2017 dyou American linden Tilia americana Leaves Changing Color (None) 37.441770000000000 -122.138830000000000 78292
Sun Apr 16 00:00:00 GMT 2017 dyou American linden Tilia americana Leaves Dropping (Middle) 37.441770000000000 -122.138830000000000 78293
Sun Apr 16 00:00:00 GMT 2017 dyou American linden Tilia americana Flowers (None) 37.441770000000000 -122.138830000000000 78294
Sun Apr 16 00:00:00 GMT 2017 dyou American linden Tilia americana Fruit (None) 37.441770000000000 -122.138830000000000 78295
Mon Apr 24 00:00:00 GMT 2017 Scutacarus1964 American linden Tilia americana First Leaf 39.398760000000000 -101.029760000000000 80007
Mon Apr 10 00:00:00 GMT 2017 kaytiec13 American linden Tilia americana Leaves Unfolding (Early) 40.819048000000000 -96.701246000000000 80029
Mon Apr 10 00:00:00 GMT 2017 kaytiec13 American linden Tilia americana Leaves Changing Color (None) 40.819048000000000 -96.701246000000000 80030
Mon Apr 10 00:00:00 GMT 2017 kaytiec13 American linden Tilia americana Leaves Dropping (None) 40.819048000000000 -96.701246000000000 80031
Mon Apr 10 00:00:00 GMT 2017 kaytiec13 American linden Tilia americana Flowers (None) 40.819048000000000 -96.701246000000000 80032
Mon Apr 10 00:00:00 GMT 2017 kaytiec13 American linden Tilia americana Fruit (None) 40.819048000000000 -96.701246000000000 80033
Fri Apr 14 00:00:00 GMT 2017 kaytiec13 American linden Tilia americana Leaves Unfolding (Middle) 40.819048000000000 -96.701246000000000 80034
Fri Apr 14 00:00:00 GMT 2017 kaytiec13 American linden Tilia americana Leaves Changing Color (None) 40.819048000000000 -96.701246000000000 80035
Fri Apr 14 00:00:00 GMT 2017 kaytiec13 American linden Tilia americana Leaves Dropping (None) 40.819048000000000 -96.701246000000000 80036
Fri Apr 14 00:00:00 GMT 2017 kaytiec13 American linden Tilia americana Flowers (None) 40.819048000000000 -96.701246000000000 80037
Fri Apr 14 00:00:00 GMT 2017 kaytiec13 American linden Tilia americana Fruit (None) 40.819048000000000 -96.701246000000000 80038
Wed Apr 19 00:00:00 GMT 2017 kaytiec13 American linden Tilia americana Leaves Unfolding (Late) 40.819048000000000 -96.701246000000000 80039
Wed Apr 19 00:00:00 GMT 2017 kaytiec13 American linden Tilia americana Leaves Changing Color (None) 40.819048000000000 -96.701246000000000 80040
Wed Apr 19 00:00:00 GMT 2017 kaytiec13 American linden Tilia americana Leaves Dropping (None) 40.819048000000000 -96.701246000000000 80041
Wed Apr 19 00:00:00 GMT 2017 kaytiec13 American linden Tilia americana Flowers (None) 40.819048000000000 -96.701246000000000 80042
Wed Apr 19 00:00:00 GMT 2017 kaytiec13 American linden Tilia americana Fruit (None) 40.819048000000000 -96.701246000000000 80043
Wed May 03 00:00:00 GMT 2017 snoopdog American linden Tilia americana Leaves Unfolding (Early) 46.600730000000000 -112.038880000000000 81611
Wed May 03 00:00:00 GMT 2017 snoopdog American linden Tilia americana Leaves Changing Color (None) 46.600730000000000 -112.038880000000000 81612
Wed May 03 00:00:00 GMT 2017 snoopdog American linden Tilia americana Leaves Dropping (None) 46.600730000000000 -112.038880000000000 81613
Wed May 03 00:00:00 GMT 2017 snoopdog American linden Tilia americana Flowers (None) 46.600730000000000 -112.038880000000000 81614
Wed May 03 00:00:00 GMT 2017 snoopdog American linden Tilia americana Fruit (None) 46.600730000000000 -112.038880000000000 81615
Tue Mar 07 00:00:00 GMT 2017 snoopdog American linden Tilia americana Leaves Unfolding (None) 46.600730000000000 -112.038880000000000 81616
Tue Mar 07 00:00:00 GMT 2017 snoopdog American linden Tilia americana Leaves Changing Color (None) 46.600730000000000 -112.038880000000000 81617
Tue Mar 07 00:00:00 GMT 2017 snoopdog American linden Tilia americana Leaves Dropping (None) 46.600730000000000 -112.038880000000000 81618
Tue Mar 07 00:00:00 GMT 2017 snoopdog American linden Tilia americana Flowers (None) 46.600730000000000 -112.038880000000000 81619
Tue Mar 07 00:00:00 GMT 2017 snoopdog American linden Tilia americana Fruit (None) 46.600730000000000 -112.038880000000000 81620
Mon Apr 10 00:00:00 GMT 2017 snoopdog American linden Tilia americana Leaves Unfolding (None) 46.600730000000000 -112.038880000000000 81621
Mon Apr 10 00:00:00 GMT 2017 snoopdog American linden Tilia americana Leaves Changing Color (None) 46.600730000000000 -112.038880000000000 81622
Mon Apr 10 00:00:00 GMT 2017 snoopdog American linden Tilia americana Leaves Dropping (None) 46.600730000000000 -112.038880000000000 81623
Mon Apr 10 00:00:00 GMT 2017 snoopdog American linden Tilia americana Flowers (None) 46.600730000000000 -112.038880000000000 81624
Mon Apr 10 00:00:00 GMT 2017 snoopdog American linden Tilia americana Fruit (None) 46.600730000000000 -112.038880000000000 81625
Sat Mar 04 00:00:00 GMT 2017 snoopdog American linden Tilia americana Leaves Unfolding (None) 46.600730000000000 -112.038880000000000 81626
Sat Mar 04 00:00:00 GMT 2017 snoopdog American linden Tilia americana Leaves Changing Color (None) 46.600730000000000 -112.038880000000000 81627
Sat Mar 04 00:00:00 GMT 2017 snoopdog American linden Tilia americana Leaves Dropping (None) 46.600730000000000 -112.038880000000000 81628
Sat Mar 04 00:00:00 GMT 2017 snoopdog American linden Tilia americana Flowers (None) 46.600730000000000 -112.038880000000000 81629
Sat Mar 04 00:00:00 GMT 2017 snoopdog American linden Tilia americana Fruit (None) 46.600730000000000 -112.038880000000000 81630
Mon Mar 27 00:00:00 GMT 2017 snoopdog American linden Tilia americana Leaves Unfolding (None) 46.600730000000000 -112.038880000000000 81631
Mon Mar 27 00:00:00 GMT 2017 snoopdog American linden Tilia americana Leaves Changing Color (None) 46.600730000000000 -112.038880000000000 81632
Mon Mar 27 00:00:00 GMT 2017 snoopdog American linden Tilia americana Leaves Dropping (None) 46.600730000000000 -112.038880000000000 81633
Mon Mar 27 00:00:00 GMT 2017 snoopdog American linden Tilia americana Flowers (None) 46.600730000000000 -112.038880000000000 81634
Mon Mar 27 00:00:00 GMT 2017 snoopdog American linden Tilia americana Fruit (None) 46.600730000000000 -112.038880000000000 81635
Wed May 03 00:00:00 GMT 2017 Scutacarus1964 American linden Tilia americana All Leaves Unfolded 39.398760000000000 -101.029760000000000 82173
Sun May 07 00:00:00 GMT 2017 allib001 American linden Tilia americana First Leaf 45.053700000000000 -92.812700000000000 82256
Sat May 13 00:00:00 GMT 2017 allib001 American linden Tilia americana All Leaves Unfolded 45.053700000000000 -92.812700000000000 83836
Sun Apr 30 00:00:00 GMT 2017 AndrewTang American linden Tilia americana Leaves Unfolding (Late) 37.459121000000000 -122.103982000000000 84200
Sun Apr 30 00:00:00 GMT 2017 AndrewTang American linden Tilia americana Leaves Changing Color (Late) 37.459121000000000 -122.103982000000000 84201
Sun Apr 30 00:00:00 GMT 2017 AndrewTang American linden Tilia americana Leaves Dropping (Early) 37.459121000000000 -122.103982000000000 84202
Sun Apr 30 00:00:00 GMT 2017 AndrewTang American linden Tilia americana Flowers (Early) 37.459121000000000 -122.103982000000000 84203
Sun Apr 30 00:00:00 GMT 2017 AndrewTang American linden Tilia americana Fruit (None) 37.459121000000000 -122.103982000000000 84204
Fri Apr 14 00:00:00 GMT 2017 StephanieT American linden Tilia americana Leaves Unfolding (Late) 37.429530000000000 -122.129310000000000 85093
Fri Apr 14 00:00:00 GMT 2017 StephanieT American linden Tilia americana Leaves Changing Color (Late) 37.429530000000000 -122.129310000000000 85094
Fri Apr 14 00:00:00 GMT 2017 StephanieT American linden Tilia americana Leaves Dropping (None) 37.429530000000000 -122.129310000000000 85095
Fri Apr 14 00:00:00 GMT 2017 StephanieT American linden Tilia americana Flowers (Middle) 37.429530000000000 -122.129310000000000 85096
Fri Apr 14 00:00:00 GMT 2017 StephanieT American linden Tilia americana Fruit (None) 37.429530000000000 -122.129310000000000 85097
Thu May 11 00:00:00 GMT 2017 Scutacarus1964 American linden Tilia americana First Flower 39.398760000000000 -101.029760000000000 85633
Thu May 18 00:00:00 GMT 2017 Scutacarus1964 American linden Tilia americana Full Flower 39.398760000000000 -101.029760000000000 85634
Sun May 21 00:00:00 GMT 2017 Scutacarus1964 American linden Tilia americana First Ripe Fruit 39.398760000000000 -101.029760000000000 85635
Tue May 23 00:00:00 GMT 2017 Scutacarus1964 American linden Tilia americana Full Fruiting 39.398760000000000 -101.029760000000000 85636
Sun Jun 18 00:00:00 GMT 2017 allib001 American linden Tilia americana First Flower 45.053700000000000 -92.812700000000000 86544
Sun Jun 25 00:00:00 GMT 2017 allib001 American linden Tilia americana Full Flower 45.053700000000000 -92.812700000000000 86545

*All downloadable materials require the free Adobe Reader.